createdAt,value
2023-01-28T00:04:46.707Z,2.34
2023-01-28T00:09:55.065Z,2.34
2023-01-28T00:15:03.266Z,2.34
2023-01-28T00:20:13.288Z,2.34
2023-01-28T00:25:21.318Z,2.33
2023-01-28T00:30:29.531Z,2.33
2023-01-28T00:35:37.949Z,2.33
2023-01-28T00:40:47.244Z,2.33
2023-01-28T00:45:55.836Z,2.33
2023-01-28T00:51:03.916Z,2.33
2023-01-28T00:56:14.463Z,2.33
2023-01-28T01:01:24.569Z,2.33
2023-01-28T01:06:34.169Z,2.33
2023-01-28T01:11:41.611Z,2.32
2023-01-28T01:16:50.288Z,2.33
2023-01-28T01:22:00.795Z,2.32
2023-01-28T01:27:09.287Z,2.32
2023-01-28T01:32:17.461Z,2.32
2023-01-28T01:37:25.989Z,2.31
2023-01-28T01:42:34.187Z,2.31
2023-01-28T01:47:49.103Z,2.30
2023-01-28T01:53:02.291Z,2.30
2023-01-28T01:58:13.763Z,2.29
2023-01-28T02:03:27.570Z,2.29
2023-01-28T02:08:36.792Z,2.28
2023-01-28T02:13:51.677Z,2.26
2023-01-28T02:18:59.793Z,2.26
2023-01-28T02:24:35.102Z,2.25
2023-01-28T02:29:52.617Z,2.24
2023-01-28T02:35:08.260Z,2.23
2023-01-28T02:40:22.151Z,2.22
2023-01-28T02:45:54.136Z,2.20
2023-01-28T02:51:09.671Z,2.20
2023-01-28T02:56:29.889Z,2.18
2023-01-28T03:01:46.508Z,2.16
2023-01-28T03:06:59.712Z,2.15
2023-01-28T03:12:28.812Z,2.14
2023-01-28T03:18:01.910Z,2.12
2023-01-28T03:23:34.927Z,2.11
2023-01-28T03:29:03.030Z,2.10
2023-01-28T03:34:32.550Z,2.08
2023-01-28T03:39:41.443Z,2.08
2023-01-28T03:44:51.068Z,2.07
2023-01-28T03:50:01.355Z,2.05
2023-01-28T03:55:15.473Z,2.05
2023-01-28T04:00:24.712Z,2.03
2023-01-28T04:05:32.376Z,2.02
2023-01-28T04:10:42.297Z,2.02
2023-01-28T04:16:06.063Z,2.01
2023-01-28T04:21:20.220Z,2.00
2023-01-28T04:26:29.311Z,1.99
2023-01-28T04:31:37.859Z,1.99
2023-01-28T04:36:59.084Z,1.97
2023-01-28T04:42:26.774Z,1.96
2023-01-28T04:47:50.437Z,1.95
2023-01-28T04:53:19.234Z,1.94
2023-01-28T04:58:49.676Z,1.94
2023-01-28T05:03:58.118Z,1.93
2023-01-28T05:09:11.640Z,1.93
2023-01-28T05:14:20.132Z,1.92
2023-01-28T05:19:49.327Z,1.92
2023-01-28T05:25:04.236Z,1.91
2023-01-28T05:30:13.972Z,1.92
2023-01-28T05:35:22.213Z,1.92
2023-01-28T05:40:30.021Z,1.92
2023-01-28T05:45:38.935Z,1.91
2023-01-28T05:50:52.604Z,1.91
2023-01-28T05:56:12.779Z,1.90
2023-01-28T06:01:22.910Z,1.89
2023-01-28T06:06:33.066Z,1.90
2023-01-28T06:11:42.217Z,1.90
2023-01-28T06:16:50.605Z,1.89
2023-01-28T06:22:16.304Z,1.88
2023-01-28T06:27:25.683Z,1.89
2023-01-28T06:32:33.006Z,1.89
2023-01-28T06:37:42.221Z,1.89
2023-01-28T06:42:51.011Z,1.89
2023-01-28T06:47:59.134Z,1.89
2023-01-28T06:53:06.468Z,1.89
2023-01-28T06:58:15.459Z,1.90
2023-01-28T07:03:23.830Z,1.91
2023-01-28T07:08:31.131Z,1.90
2023-01-28T07:13:38.571Z,1.91
2023-01-28T07:18:46.274Z,1.92
2023-01-28T07:23:55.284Z,1.93
2023-01-28T07:29:03.601Z,1.93
2023-01-28T07:34:13.167Z,1.94
2023-01-28T07:39:21.378Z,1.94
2023-01-28T07:44:29.395Z,1.95
2023-01-28T07:49:40.087Z,1.95
2023-01-28T07:54:48.415Z,1.97
2023-01-28T07:59:56.868Z,1.98
2023-01-28T08:05:05.376Z,1.99
2023-01-28T08:10:15.063Z,1.99
2023-01-28T08:15:24.061Z,2.00
2023-01-28T08:20:33.089Z,2.03
2023-01-28T08:25:41.943Z,2.05
2023-01-28T08:30:49.621Z,2.07
2023-01-28T08:35:57.910Z,2.09
2023-01-28T08:41:06.387Z,2.12
2023-01-28T08:46:13.908Z,2.14
2023-01-28T08:51:22.119Z,2.16
2023-01-28T08:56:30.888Z,2.20
2023-01-28T09:01:38.972Z,2.23
2023-01-28T09:06:46.511Z,2.26
2023-01-28T09:11:54.266Z,2.30
2023-01-28T09:17:02.484Z,2.34
2023-01-28T09:22:11.208Z,2.36
2023-01-28T09:27:19.820Z,2.39
2023-01-28T09:32:28.091Z,2.41
2023-01-28T09:37:36.459Z,2.44
2023-01-28T09:42:59.218Z,2.46
2023-01-28T09:48:08.570Z,2.48
2023-01-28T09:53:22.198Z,2.52
2023-01-28T09:58:30.963Z,2.56
2023-01-28T10:03:49.445Z,2.60
2023-01-28T10:09:29.509Z,2.64
2023-01-28T10:14:51.991Z,2.69
2023-01-28T10:20:02.696Z,2.73
2023-01-28T10:25:21.105Z,2.77
2023-01-28T10:30:30.385Z,2.82
2023-01-28T10:35:40.999Z,2.86
2023-01-28T10:40:48.628Z,2.90
2023-01-28T10:46:03.594Z,2.93
2023-01-28T10:51:11.208Z,2.97
2023-01-28T10:56:29.626Z,3.01
2023-01-28T11:01:51.359Z,3.05
2023-01-28T11:07:03.027Z,3.09
2023-01-28T11:12:23.300Z,3.12
2023-01-28T11:17:34.142Z,3.17
2023-01-28T11:22:44.275Z,3.20
2023-01-28T11:27:53.700Z,3.23
2023-01-28T11:33:16.269Z,3.26
2023-01-28T11:38:24.470Z,3.30
2023-01-28T11:43:33.863Z,3.32
2023-01-28T11:48:50.669Z,3.34
2023-01-28T11:54:22.478Z,3.35
2023-01-28T11:59:55.165Z,3.37
2023-01-28T12:05:21.688Z,3.39
2023-01-28T12:10:39.556Z,3.39
2023-01-28T12:16:26.071Z,3.41
2023-01-28T12:21:48.410Z,3.41
2023-01-28T12:27:00.518Z,3.41
2023-01-28T12:32:21.073Z,3.41
2023-01-28T12:37:43.898Z,3.43
2023-01-28T12:42:58.131Z,3.43
2023-01-28T12:48:14.107Z,3.44
2023-01-28T12:53:30.255Z,3.44
2023-01-28T12:58:43.985Z,3.45
2023-01-28T13:03:57.205Z,3.46
2023-01-28T13:09:13.928Z,3.46
2023-01-28T13:14:26.961Z,3.44
2023-01-28T13:19:43.220Z,3.43
2023-01-28T13:24:51.151Z,3.42
2023-01-28T13:30:24.751Z,3.40
2023-01-28T13:35:41.344Z,3.39
2023-01-28T13:41:01.202Z,3.37
2023-01-28T13:46:12.668Z,3.35
2023-01-28T13:51:26.337Z,3.33
2023-01-28T13:56:41.693Z,3.31
2023-01-28T14:02:10.241Z,3.28
2023-01-28T14:07:43.122Z,3.25
2023-01-28T14:13:20.175Z,3.21
2023-01-28T14:18:33.999Z,3.18
2023-01-28T14:23:49.524Z,3.15
2023-01-28T14:29:12.730Z,3.12
2023-01-28T14:34:29.612Z,3.09
2023-01-28T14:39:45.675Z,3.06
2023-01-28T14:45:01.511Z,3.03
2023-01-28T14:50:37.390Z,3.00
2023-01-28T14:55:54.860Z,2.96
2023-01-28T15:01:03.983Z,2.92
2023-01-28T15:06:18.662Z,2.87
2023-01-28T15:11:29.050Z,2.84
2023-01-28T15:16:37.707Z,2.79
2023-01-28T15:21:47.497Z,2.75
2023-01-28T15:26:56.271Z,2.71
2023-01-28T15:32:05.461Z,2.66
2023-01-28T15:37:15.778Z,2.61
2023-01-28T15:42:29.930Z,2.56
2023-01-28T15:47:39.069Z,2.52
2023-01-28T15:52:47.609Z,2.48
2023-01-28T15:57:56.297Z,2.44
2023-01-28T16:03:11.822Z,2.40
2023-01-28T16:08:28.727Z,2.37
2023-01-28T16:13:37.610Z,2.34
2023-01-28T16:18:49.537Z,2.31
2023-01-28T16:24:07.337Z,2.28
2023-01-28T16:29:18.213Z,2.25
2023-01-28T16:34:28.988Z,2.23
2023-01-28T16:39:36.287Z,2.21
2023-01-28T16:44:44.978Z,2.19
2023-01-28T16:49:53.464Z,2.17
2023-01-28T16:55:01.739Z,2.15
2023-01-28T17:00:18.781Z,2.14
2023-01-28T17:05:27.957Z,2.11
2023-01-28T17:10:37.367Z,2.09
2023-01-28T17:15:46.446Z,2.08
2023-01-28T17:20:55.139Z,2.06
2023-01-28T17:26:08.235Z,2.04
2023-01-28T17:31:18.969Z,2.02
2023-01-28T17:36:27.878Z,2.00
2023-01-28T17:41:36.252Z,1.97
2023-01-28T17:46:44.773Z,1.93
2023-01-28T17:51:53.499Z,1.91
2023-01-28T17:57:01.729Z,1.87
2023-01-28T18:02:11.723Z,1.83
2023-01-28T18:07:20.543Z,1.79
2023-01-28T18:12:29.087Z,1.75
2023-01-28T18:17:37.594Z,1.70
2023-01-28T18:22:46.283Z,1.67
2023-01-28T18:27:53.931Z,1.63
2023-01-28T18:33:01.612Z,1.60
2023-01-28T18:38:10.425Z,1.58
2023-01-28T18:43:19.620Z,1.57
2023-01-28T18:48:27.837Z,1.54
2023-01-28T18:53:37.167Z,1.54
2023-01-28T18:58:46.315Z,1.52
2023-01-28T19:03:55.228Z,1.51
2023-01-28T19:09:06.525Z,1.50
2023-01-28T19:14:16.664Z,1.49
2023-01-28T19:19:25.163Z,1.47
2023-01-28T19:24:33.927Z,1.45
2023-01-28T19:29:43.737Z,1.42
2023-01-28T19:34:52.101Z,1.40
2023-01-28T19:40:00.646Z,1.39
2023-01-28T19:45:10.693Z,1.36
2023-01-28T19:50:19.698Z,1.35
2023-01-28T19:55:28.233Z,1.33
2023-01-28T20:00:37.047Z,1.31
2023-01-28T20:05:46.078Z,1.29
2023-01-28T20:10:54.575Z,1.27
2023-01-28T20:16:06.113Z,1.25
2023-01-28T20:21:14.589Z,1.23
2023-01-28T20:26:25.088Z,1.21
2023-01-28T20:31:33.072Z,1.21
2023-01-28T20:36:40.573Z,1.19
2023-01-28T20:41:49.233Z,1.17
2023-01-28T20:46:57.337Z,1.15
2023-01-28T20:52:05.265Z,1.14
2023-01-28T20:57:12.898Z,1.13
2023-01-28T21:02:20.359Z,1.12
2023-01-28T21:07:29.999Z,1.10
2023-01-28T21:12:38.368Z,1.08
2023-01-28T21:17:46.655Z,1.08
2023-01-28T21:22:56.593Z,1.08
2023-01-28T21:28:05.012Z,1.08
2023-01-28T21:33:13.620Z,1.07
2023-01-28T21:38:22.452Z,1.06
2023-01-28T21:43:31.815Z,1.06
2023-01-28T21:48:40.337Z,1.04
2023-01-28T21:53:48.473Z,1.03
2023-01-28T21:59:14.361Z,1.02
2023-01-28T22:04:21.949Z,1.03
2023-01-28T22:09:30.186Z,1.02
2023-01-28T22:14:38.747Z,1.02
2023-01-28T22:19:48.545Z,1.02
2023-01-28T22:24:56.887Z,1.02
2023-01-28T22:30:05.305Z,1.01
2023-01-28T22:35:14.451Z,1.02
2023-01-28T22:40:22.825Z,1.01
2023-01-28T22:45:31.295Z,1.00
2023-01-28T22:50:39.988Z,1.00
2023-01-28T22:55:53.877Z,0.99
2023-01-28T23:01:02.895Z,0.98
2023-01-28T23:06:11.625Z,0.99
2023-01-28T23:11:25.818Z,0.98
2023-01-28T23:16:53.654Z,0.98
2023-01-28T23:22:19.737Z,0.98
2023-01-28T23:27:28.166Z,0.98
2023-01-28T23:32:36.736Z,0.98
2023-01-28T23:37:45.070Z,0.97
2023-01-28T23:42:53.596Z,0.97
2023-01-28T23:48:02.620Z,0.97
2023-01-28T23:53:13.903Z,0.98
2023-01-28T23:58:41.147Z,0.98
